»·PEaware :: SWA738 KOAK-KTUS

SWA738 :: KOAK-KTUS

FLIGHT INFORMATION

Flight Status: Arrived
Operator:
Southwest Airlines
More flights by this operator :: More flights under this callsign
Pilot: Tristan Z. (4790)
Aircraft: BOEING 737-700
(B737)
More flights by this aircraft type
Origin: KOAK Metro Oakland Intl
United States
Destination: KTUS Tucson Intl
United States
More flights between these airports :: More routes between these airports
Route: CNDEL4 LOSHN BOILE BLH J50 GBN DINGO5
File this flight plan on PilotEdge
Remarks:
Altitude:
(Current/Filed)
39,000ft
Speed:
(Current/Filed)
450kts
Departed: 03-Nov-20 10:04 PM
Arrived: 03-Nov-20 11:40 PM
Distance/Time
Traveled:
648nm/1:36
Distance/Time
To Go:
Arrived

Flight Plot

Page will automatically refresh every two minutes.

Flight plan parsing failed; only flown route is shown


Map Options




Map Legend


Flown Route
Filed Route
Departure Airport
Arrival Airport
Navaid (VOR, NDB)
Fix

Horizontal Profiles

Position Reports

Time Latitude Longitude Heading Altitude Ground
Speed
03-Nov-20 21:51 37.708894 -122.213530 113 15ft 0kts
03-Nov-20 21:52 37.708894 -122.213530 113 15ft 0kts
03-Nov-20 21:53 37.708894 -122.213530 113 15ft 0kts
03-Nov-20 21:54 37.708894 -122.213530 113 15ft 0kts
03-Nov-20 21:55 37.708894 -122.213530 113 15ft 0kts
03-Nov-20 21:56 37.708894 -122.213530 113 15ft 0kts
03-Nov-20 21:57 37.708941 -122.213666 114 15ft 2kts
03-Nov-20 21:58 37.709214 -122.214336 151 15ft 2kts
03-Nov-20 21:59 37.709561 -122.214282 217 15ft 0kts
03-Nov-20 22:00 37.709561 -122.214282 217 15ft 0kts
03-Nov-20 22:01 37.706392 -122.217630 149 15ft 21kts
03-Nov-20 22:02 37.701943 -122.214029 228 15ft 19kts
03-Nov-20 22:03 37.720640 -122.243415 307 1600ft 171kts
03-Nov-20 22:04 37.761277 -122.304120 309 2304ft 261kts
03-Nov-20 22:05 37.793547 -122.378110 253 6801ft 265kts
03-Nov-20 22:06 37.735049 -122.414502 189 10407ft 285kts
03-Nov-20 22:07 37.672256 -122.427769 192 12369ft 328kts
03-Nov-20 22:08 37.603857 -122.445284 193 14944ft 343kts
03-Nov-20 22:09 37.532240 -122.450639 173 17327ft 360kts
03-Nov-20 22:10 37.443416 -122.397753 139 20085ft 387kts
03-Nov-20 22:11 37.361001 -122.274331 130 22899ft 415kts
03-Nov-20 22:12 37.275377 -122.141852 130 23229ft 420kts
03-Nov-20 22:13 37.180435 -121.995510 129 26312ft 437kts
03-Nov-20 22:14 37.093847 -121.862616 128 28677ft 452kts
03-Nov-20 22:15 37.013831 -121.740283 127 30958ft 456kts
03-Nov-20 22:16 36.934593 -121.619609 127 33602ft 444kts
03-Nov-20 22:17 36.856582 -121.501210 126 35742ft 439kts
03-Nov-20 22:18 36.779745 -121.385039 126 37565ft 434kts
03-Nov-20 22:19 36.703176 -121.269591 126 38989ft 433kts
03-Nov-20 22:20 36.624287 -121.151051 127 39199ft 451kts
03-Nov-20 22:21 36.543769 -121.030552 128 39194ft 454kts
03-Nov-20 22:22 36.462616 -120.910005 129 39191ft 455kts
03-Nov-20 22:23 36.382058 -120.789892 128 39165ft 454kts
03-Nov-20 22:24 36.301193 -120.669139 128 39163ft 457kts
03-Nov-20 22:25 36.220369 -120.548910 128 39159ft 453kts
03-Nov-20 22:26 36.139542 -120.429087 128 39164ft 455kts
03-Nov-20 22:27 36.058378 -120.309151 129 39155ft 456kts
03-Nov-20 22:28 35.976780 -120.189041 129 39148ft 455kts
03-Nov-20 22:29 35.895699 -120.070095 129 39149ft 455kts
03-Nov-20 22:30 35.813703 -119.951723 130 39149ft 455kts
03-Nov-20 22:31 35.728850 -119.831424 129 39158ft 472kts
03-Nov-20 22:32 35.643623 -119.710614 129 39165ft 467kts
03-Nov-20 22:33 35.558281 -119.590039 129 39166ft 469kts
03-Nov-20 22:34 35.472599 -119.469428 129 39160ft 468kts
03-Nov-20 22:35 35.387024 -119.349360 130 39158ft 469kts
03-Nov-20 22:36 35.301291 -119.229502 130 39155ft 469kts
03-Nov-20 22:37 35.215259 -119.109653 130 39159ft 468kts
03-Nov-20 22:38 35.129509 -118.990614 130 39164ft 469kts
03-Nov-20 22:39 35.043172 -118.871147 131 39241ft 472kts
03-Nov-20 22:40 34.956464 -118.751623 132 39302ft 472kts
03-Nov-20 22:41 34.869808 -118.632557 133 39300ft 464kts
03-Nov-20 22:42 34.784172 -118.515329 133 39225ft 466kts
03-Nov-20 22:43 34.698163 -118.397950 133 39166ft 465kts
03-Nov-20 22:44 34.611423 -118.279992 134 39163ft 464kts
03-Nov-20 22:45 34.525291 -118.163244 134 39169ft 464kts
03-Nov-20 22:46 34.439729 -118.044685 125 39182ft 468kts
03-Nov-20 22:47 34.391738 -117.897626 107 39147ft 473kts
03-Nov-20 22:48 34.355408 -117.744949 107 39127ft 471kts
03-Nov-20 22:49 34.318665 -117.592185 107 39130ft 473kts
03-Nov-20 22:50 34.281592 -117.438954 107 39137ft 473kts
03-Nov-20 22:51 34.244580 -117.286879 108 39135ft 472kts
03-Nov-20 22:52 34.207247 -117.134329 108 39135ft 472kts
03-Nov-20 22:53 34.169615 -116.981586 109 39138ft 481kts
03-Nov-20 22:54 34.130936 -116.825518 109 39127ft 491kts
03-Nov-20 22:55 34.091697 -116.668100 109 39080ft 488kts
03-Nov-20 22:56 34.052518 -116.511803 109 39065ft 487kts
03-Nov-20 22:57 34.013011 -116.355167 109 39073ft 489kts
03-Nov-20 22:58 33.973334 -116.198742 110 39073ft 487kts
03-Nov-20 22:59 33.933626 -116.043194 109 39040ft 489kts
03-Nov-20 23:00 33.893476 -115.886797 109 39018ft 488kts
03-Nov-20 23:01 33.853249 -115.731093 110 38955ft 489kts
03-Nov-20 23:02 33.812705 -115.574987 109 37954ft 485kts
03-Nov-20 23:03 33.772265 -115.420252 109 36643ft 487kts
03-Nov-20 23:04 33.731598 -115.265390 110 35288ft 486kts
03-Nov-20 23:05 33.690634 -115.110373 111 35038ft 497kts
03-Nov-20 23:06 33.647825 -114.949361 111 35037ft 512kts
03-Nov-20 23:07 33.604266 -114.786615 112 35041ft 512kts
03-Nov-20 23:08 33.583292 -114.617377 98 35040ft 517kts
03-Nov-20 23:09 33.567991 -114.446070 98 35043ft 518kts
03-Nov-20 23:10 33.552382 -114.273759 99 34320ft 520kts
03-Nov-20 23:11 33.536582 -114.102730 98 33002ft 519kts
03-Nov-20 23:12 33.520509 -113.931193 98 32095ft 512kts
03-Nov-20 23:13 33.504380 -113.765624 99 34880ft 496kts
03-Nov-20 23:14 33.488691 -113.602745 99 36969ft 491kts
03-Nov-20 23:16 33.471532 -113.440689 106 38627ft 488kts
03-Nov-20 23:17 33.417488 -113.293052 131 39068ft 495kts
03-Nov-20 23:18 33.328906 -113.168358 138 39059ft 489kts
03-Nov-20 23:19 33.238259 -113.047542 138 39057ft 490kts
03-Nov-20 23:20 33.146901 -112.926046 138 39052ft 494kts
03-Nov-20 23:21 33.055002 -112.804218 137 39046ft 493kts
03-Nov-20 23:22 32.965935 -112.682698 129 39050ft 487kts
03-Nov-20 23:23 32.903886 -112.538049 118 39048ft 495kts
03-Nov-20 23:24 32.846685 -112.389198 118 39053ft 495kts
03-Nov-20 23:25 32.789467 -112.241194 119 38015ft 491kts
03-Nov-20 23:26 32.732582 -112.094712 119 34981ft 492kts
03-Nov-20 23:27 32.674806 -111.946588 119 31491ft 494kts
03-Nov-20 23:28 32.618504 -111.802806 119 28507ft 467kts
03-Nov-20 23:29 32.565785 -111.668764 119 24612ft 435kts
03-Nov-20 23:30 32.504068 -111.553281 122 21361ft 405kts
03-Nov-20 23:31 32.467556 -111.434008 109 18410ft 374kts
03-Nov-20 23:32 32.433080 -111.323074 126 15171ft 348kts
03-Nov-20 23:33 32.370695 -111.239296 137 11478ft 334kts
03-Nov-20 23:33 32.317919 -111.177047 137 9123ft 313kts
03-Nov-20 23:35 32.248730 -111.095493 135 6242ft 279kts
03-Nov-20 23:35 32.205941 -111.045026 135 5011ft 244kts
03-Nov-20 23:36 32.166008 -110.998013 136 3854ft 168kts
03-Nov-20 23:37 32.138312 -110.965421 135 3068ft 136kts
03-Nov-20 23:38 32.115802 -110.939061 135 2651ft 48kts
03-Nov-20 23:40 32.116695 -110.937542 315 2651ft 17kts
03-Nov-20 23:40 32.119188 -110.938647 343 2651ft 6kts
03-Nov-20 23:41 32.119645 -110.937840 92 2651ft 0kts
03-Nov-20 23:42 32.119645 -110.937840 92 2651ft 0kts
03-Nov-20 23:43 32.119645 -110.937840 92 2651ft 0kts

Navigation Log

Ident Type
Flight plan parsing failed, navigation log unavailable